sensor_id;sensor_type;location;lat;lon;timestamp;temperature;humidity
30148;DHT22;16960;49.404;8.248;2023-04-03T00:00:32;20.40;41.40
30148;DHT22;16960;49.404;8.248;2023-04-03T00:02:59;20.40;41.40
30148;DHT22;16960;49.404;8.248;2023-04-03T00:05:26;20.40;41.40
30148;DHT22;16960;49.404;8.248;2023-04-03T00:07:54;20.40;41.40
30148;DHT22;16960;49.404;8.248;2023-04-03T00:10:22;20.40;41.40
30148;DHT22;16960;49.404;8.248;2023-04-03T00:12:48;20.40;41.40
30148;DHT22;16960;49.404;8.248;2023-04-03T00:15:16;20.40;41.40
30148;DHT22;16960;49.404;8.248;2023-04-03T00:17:43;20.40;41.40
30148;DHT22;16960;49.404;8.248;2023-04-03T00:20:10;20.40;41.40
30148;DHT22;16960;49.404;8.248;2023-04-03T00:22:37;20.40;41.40
30148;DHT22;16960;49.404;8.248;2023-04-03T00:25:06;20.40;41.40
30148;DHT22;16960;49.404;8.248;2023-04-03T00:27:33;20.30;41.40
30148;DHT22;16960;49.404;8.248;2023-04-03T00:30:02;20.40;41.30
30148;DHT22;16960;49.404;8.248;2023-04-03T00:32:29;20.30;41.30
30148;DHT22;16960;49.404;8.248;2023-04-03T00:34:56;20.30;41.40
30148;DHT22;16960;49.404;8.248;2023-04-03T00:37:23;20.30;41.30
30148;DHT22;16960;49.404;8.248;2023-04-03T00:39:50;20.30;41.30
30148;DHT22;16960;49.404;8.248;2023-04-03T00:42:18;20.30;41.30
30148;DHT22;16960;49.404;8.248;2023-04-03T00:47:49;20.30;41.40
30148;DHT22;16960;49.404;8.248;2023-04-03T00:50:17;20.30;41.40
30148;DHT22;16960;49.404;8.248;2023-04-03T00:52:44;20.30;41.50
30148;DHT22;16960;49.404;8.248;2023-04-03T00:55:14;20.30;41.50
30148;DHT22;16960;49.404;8.248;2023-04-03T00:57:44;20.30;41.40
30148;DHT22;16960;49.404;8.248;2023-04-03T01:00:14;20.30;41.40
30148;DHT22;16960;49.404;8.248;2023-04-03T01:02:41;20.30;41.40
30148;DHT22;16960;49.404;8.248;2023-04-03T01:05:08;20.30;41.40
30148;DHT22;16960;49.404;8.248;2023-04-03T01:07:36;20.30;41.40
30148;DHT22;16960;49.404;8.248;2023-04-03T01:10:05;20.20;41.30
30148;DHT22;16960;49.404;8.248;2023-04-03T01:12:34;20.20;41.30
30148;DHT22;16960;49.404;8.248;2023-04-03T01:15:06;20.20;41.20
30148;DHT22;16960;49.404;8.248;2023-04-03T01:17:35;20.20;41.20
30148;DHT22;16960;49.404;8.248;2023-04-03T01:23:11;20.20;41.20
30148;DHT22;16960;49.404;8.248;2023-04-03T01:25:41;20.20;41.20
30148;DHT22;16960;49.404;8.248;2023-04-03T01:28:11;20.20;41.20
30148;DHT22;16960;49.404;8.248;2023-04-03T01:30:46;20.20;41.20
30148;DHT22;16960;49.404;8.248;2023-04-03T01:33:16;20.20;41.20
30148;DHT22;16960;49.404;8.248;2023-04-03T01:35:43;20.20;41.20
30148;DHT22;16960;49.404;8.248;2023-04-03T01:38:10;20.20;41.20
30148;DHT22;16960;49.404;8.248;2023-04-03T01:40:37;20.20;41.30
30148;DHT22;16960;49.404;8.248;2023-04-03T01:43:04;20.20;41.30
30148;DHT22;16960;49.404;8.248;2023-04-03T01:45:31;20.20;41.30
30148;DHT22;16960;49.404;8.248;2023-04-03T01:47:58;20.20;41.30
30148;DHT22;16960;49.404;8.248;2023-04-03T01:50:26;20.20;41.20
30148;DHT22;16960;49.404;8.248;2023-04-03T01:52:53;20.20;41.20
30148;DHT22;16960;49.404;8.248;2023-04-03T01:55:20;20.20;41.20
30148;DHT22;16960;49.404;8.248;2023-04-03T01:57:47;20.20;41.20
30148;DHT22;16960;49.404;8.248;2023-04-03T02:00:15;20.20;41.20
30148;DHT22;16960;49.404;8.248;2023-04-03T02:02:42;20.20;41.10
30148;DHT22;16960;49.404;8.248;2023-04-03T02:05:09;20.20;41.10
30148;DHT22;16960;49.404;8.248;2023-04-03T02:07:37;20.20;41.10
30148;DHT22;16960;49.404;8.248;2023-04-03T02:10:04;20.10;41.00
30148;DHT22;16960;49.404;8.248;2023-04-03T02:12:31;20.20;41.00
30148;DHT22;16960;49.404;8.248;2023-04-03T02:14:58;20.10;41.00
30148;DHT22;16960;49.404;8.248;2023-04-03T02:17:26;20.10;41.00
30148;DHT22;16960;49.404;8.248;2023-04-03T02:19:53;20.10;41.00
30148;DHT22;16960;49.404;8.248;2023-04-03T02:22:20;20.10;41.00
30148;DHT22;16960;49.404;8.248;2023-04-03T02:24:48;20.10;41.00
30148;DHT22;16960;49.404;8.248;2023-04-03T02:27:17;20.10;40.90
30148;DHT22;16960;49.404;8.248;2023-04-03T02:29:44;20.10;41.00
30148;DHT22;16960;49.404;8.248;2023-04-03T02:32:11;20.10;40.90
30148;DHT22;16960;49.404;8.248;2023-04-03T02:34:38;20.10;40.90
30148;DHT22;16960;49.404;8.248;2023-04-03T02:37:06;20.10;40.90
30148;DHT22;16960;49.404;8.248;2023-04-03T02:39:33;20.10;40.90
30148;DHT22;16960;49.404;8.248;2023-04-03T02:42:01;20.10;40.90
30148;DHT22;16960;49.404;8.248;2023-04-03T02:44:28;20.10;40.90
30148;DHT22;16960;49.404;8.248;2023-04-03T02:46:55;20.10;40.90
30148;DHT22;16960;49.404;8.248;2023-04-03T02:49:22;20.10;40.90
30148;DHT22;16960;49.404;8.248;2023-04-03T02:51:49;20.10;40.90
30148;DHT22;16960;49.404;8.248;2023-04-03T02:54:16;20.10;41.60
30148;DHT22;16960;49.404;8.248;2023-04-03T02:56:43;20.10;40.90
30148;DHT22;16960;49.404;8.248;2023-04-03T02:59:11;20.10;40.90
30148;DHT22;16960;49.404;8.248;2023-04-03T03:01:38;20.10;40.90
30148;DHT22;16960;49.404;8.248;2023-04-03T03:04:05;20.10;41.00
30148;DHT22;16960;49.404;8.248;2023-04-03T03:06:32;20.10;40.90
30148;DHT22;16960;49.404;8.248;2023-04-03T03:08:59;20.10;41.00
30148;DHT22;16960;49.404;8.248;2023-04-03T03:11:26;20.10;41.00
30148;DHT22;16960;49.404;8.248;2023-04-03T03:13:53;20.10;41.00
30148;DHT22;16960;49.404;8.248;2023-04-03T03:16:21;20.00;40.90
30148;DHT22;16960;49.404;8.248;2023-04-03T03:18:48;20.00;40.90
30148;DHT22;16960;49.404;8.248;2023-04-03T03:21:15;20.00;40.90
30148;DHT22;16960;49.404;8.248;2023-04-03T03:23:42;20.00;40.90
30148;DHT22;16960;49.404;8.248;2023-04-03T03:26:10;20.00;40.90
30148;DHT22;16960;49.404;8.248;2023-04-03T03:28:38;20.00;40.90
30148;DHT22;16960;49.404;8.248;2023-04-03T03:31:07;20.00;40.80
30148;DHT22;16960;49.404;8.248;2023-04-03T03:33:35;20.10;40.90
30148;DHT22;16960;49.404;8.248;2023-04-03T03:36:02;20.00;40.90
30148;DHT22;16960;49.404;8.248;2023-04-03T03:38:29;20.00;40.80
30148;DHT22;16960;49.404;8.248;2023-04-03T03:40:56;20.00;40.80
30148;DHT22;16960;49.404;8.248;2023-04-03T03:43:23;20.00;40.80
30148;DHT22;16960;49.404;8.248;2023-04-03T03:45:51;20.10;40.90
30148;DHT22;16960;49.404;8.248;2023-04-03T03:48:18;20.10;40.90
30148;DHT22;16960;49.404;8.248;2023-04-03T03:50:47;20.00;40.80
30148;DHT22;16960;49.404;8.248;2023-04-03T03:53:14;20.00;40.80
30148;DHT22;16960;49.404;8.248;2023-04-03T03:55:41;20.00;40.70
30148;DHT22;16960;49.404;8.248;2023-04-03T03:58:08;20.10;40.90
30148;DHT22;16960;49.404;8.248;2023-04-03T04:00:36;20.00;40.70
30148;DHT22;16960;49.404;8.248;2023-04-03T04:03:03;20.00;40.70
30148;DHT22;16960;49.404;8.248;2023-04-03T04:05:30;20.00;40.70
30148;DHT22;16960;49.404;8.248;2023-04-03T04:07:58;20.00;40.70
30148;DHT22;16960;49.404;8.248;2023-04-03T04:10:25;20.10;40.90
30148;DHT22;16960;49.404;8.248;2023-04-03T04:12:52;20.00;40.70
30148;DHT22;16960;49.404;8.248;2023-04-03T04:15:19;20.00;40.70
30148;DHT22;16960;49.404;8.248;2023-04-03T04:17:47;20.00;40.80
30148;DHT22;16960;49.404;8.248;2023-04-03T04:20:14;20.10;41.00
30148;DHT22;16960;49.404;8.248;2023-04-03T04:22:41;20.10;41.00
30148;DHT22;16960;49.404;8.248;2023-04-03T04:25:10;20.10;41.00
30148;DHT22;16960;49.404;8.248;2023-04-03T04:27:37;20.10;40.90
30148;DHT22;16960;49.404;8.248;2023-04-03T04:30:05;20.10;40.90
30148;DHT22;16960;49.404;8.248;2023-04-03T04:32:32;20.20;40.90
30148;DHT22;16960;49.404;8.248;2023-04-03T04:35:00;20.20;40.90
30148;DHT22;16960;49.404;8.248;2023-04-03T04:37:27;20.20;40.80
30148;DHT22;16960;49.404;8.248;2023-04-03T04:39:53;20.30;40.90
30148;DHT22;16960;49.404;8.248;2023-04-03T04:42:22;20.30;40.90
30148;DHT22;16960;49.404;8.248;2023-04-03T04:44:49;20.30;40.80
30148;DHT22;16960;49.404;8.248;2023-04-03T04:47:16;20.30;40.70
30148;DHT22;16960;49.404;8.248;2023-04-03T04:49:43;20.40;40.70
30148;DHT22;16960;49.404;8.248;2023-04-03T04:52:10;20.40;40.60
30148;DHT22;16960;49.404;8.248;2023-04-03T04:54:37;20.40;40.60
30148;DHT22;16960;49.404;8.248;2023-04-03T04:57:04;20.40;40.60
30148;DHT22;16960;49.404;8.248;2023-04-03T04:59:33;20.50;40.70
30148;DHT22;16960;49.404;8.248;2023-04-03T05:02:00;20.50;41.30
30148;DHT22;16960;49.404;8.248;2023-04-03T05:04:27;20.50;40.50
30148;DHT22;16960;49.404;8.248;2023-04-03T05:06:54;20.50;40.50
30148;DHT22;16960;49.404;8.248;2023-04-03T05:09:21;20.50;40.40
30148;DHT22;16960;49.404;8.248;2023-04-03T05:11:48;20.50;40.40
30148;DHT22;16960;49.404;8.248;2023-04-03T05:14:15;20.50;40.40
30148;DHT22;16960;49.404;8.248;2023-04-03T05:16:43;20.50;40.40
30148;DHT22;16960;49.404;8.248;2023-04-03T05:19:10;20.50;40.40
30148;DHT22;16960;49.404;8.248;2023-04-03T05:21:37;20.50;40.30
30148;DHT22;16960;49.404;8.248;2023-04-03T05:24:04;20.50;40.30
30148;DHT22;16960;49.404;8.248;2023-04-03T05:26:34;20.50;40.30
30148;DHT22;16960;49.404;8.248;2023-04-03T05:29:01;20.50;40.40
30148;DHT22;16960;49.404;8.248;2023-04-03T05:31:29;20.50;40.40
30148;DHT22;16960;49.404;8.248;2023-04-03T05:33:57;20.50;40.40
30148;DHT22;16960;49.404;8.248;2023-04-03T05:36:24;20.50;40.40
30148;DHT22;16960;49.404;8.248;2023-04-03T05:38:52;20.50;40.30
30148;DHT22;16960;49.404;8.248;2023-04-03T05:41:22;20.50;40.30
30148;DHT22;16960;49.404;8.248;2023-04-03T05:43:48;20.50;40.30
30148;DHT22;16960;49.404;8.248;2023-04-03T05:46:17;20.50;40.30
30148;DHT22;16960;49.404;8.248;2023-04-03T05:48:44;20.50;40.20
30148;DHT22;16960;49.404;8.248;2023-04-03T05:51:16;20.50;40.20
30148;DHT22;16960;49.404;8.248;2023-04-03T05:53:44;20.50;40.20
30148;DHT22;16960;49.404;8.248;2023-04-03T05:56:11;20.50;40.10
30148;DHT22;16960;49.404;8.248;2023-04-03T05:58:38;20.50;40.10
30148;DHT22;16960;49.404;8.248;2023-04-03T06:01:05;20.60;40.10
30148;DHT22;16960;49.404;8.248;2023-04-03T06:03:32;20.60;40.00
30148;DHT22;16960;49.404;8.248;2023-04-03T06:05:59;20.60;40.00
30148;DHT22;16960;49.404;8.248;2023-04-03T06:08:27;20.50;40.00
30148;DHT22;16960;49.404;8.248;2023-04-03T06:10:54;20.60;39.90
30148;DHT22;16960;49.404;8.248;2023-04-03T06:13:21;20.60;39.90
30148;DHT22;16960;49.404;8.248;2023-04-03T06:15:49;20.50;40.00
30148;DHT22;16960;49.404;8.248;2023-04-03T06:18:16;20.50;40.00
30148;DHT22;16960;49.404;8.248;2023-04-03T06:20:43;20.60;39.90
30148;DHT22;16960;49.404;8.248;2023-04-03T06:23:10;20.60;40.00
30148;DHT22;16960;49.404;8.248;2023-04-03T06:25:38;20.60;39.90
30148;DHT22;16960;49.404;8.248;2023-04-03T06:28:06;20.50;40.00
30148;DHT22;16960;49.404;8.248;2023-04-03T06:30:34;20.50;39.90
30148;DHT22;16960;49.404;8.248;2023-04-03T06:33:02;20.60;39.90
30148;DHT22;16960;49.404;8.248;2023-04-03T06:35:29;20.60;39.90
30148;DHT22;16960;49.404;8.248;2023-04-03T06:37:56;20.60;39.80
30148;DHT22;16960;49.404;8.248;2023-04-03T06:40:24;20.60;39.70
30148;DHT22;16960;49.404;8.248;2023-04-03T06:42:53;20.60;39.60
30148;DHT22;16960;49.404;8.248;2023-04-03T06:45:20;20.60;39.40
30148;DHT22;16960;49.404;8.248;2023-04-03T06:47:47;20.60;39.40
30148;DHT22;16960;49.404;8.248;2023-04-03T06:50:14;20.60;39.30
30148;DHT22;16960;49.404;8.248;2023-04-03T06:52:41;20.70;39.30
30148;DHT22;16960;49.404;8.248;2023-04-03T06:55:09;20.60;39.10
30148;DHT22;16960;49.404;8.248;2023-04-03T06:57:36;20.70;39.10
30148;DHT22;16960;49.404;8.248;2023-04-03T07:00:06;20.70;39.00
30148;DHT22;16960;49.404;8.248;2023-04-03T07:02:34;20.60;39.00
30148;DHT22;16960;49.404;8.248;2023-04-03T07:05:01;20.70;38.90
30148;DHT22;16960;49.404;8.248;2023-04-03T07:07:29;20.70;38.90
30148;DHT22;16960;49.404;8.248;2023-04-03T07:09:56;20.70;38.80
30148;DHT22;16960;49.404;8.248;2023-04-03T07:12:23;20.70;38.70
30148;DHT22;16960;49.404;8.248;2023-04-03T07:14:50;20.70;38.60
30148;DHT22;16960;49.404;8.248;2023-04-03T07:17:18;20.70;38.70
30148;DHT22;16960;49.404;8.248;2023-04-03T07:19:45;20.70;38.70
30148;DHT22;16960;49.404;8.248;2023-04-03T07:22:12;20.60;38.60
30148;DHT22;16960;49.404;8.248;2023-04-03T07:24:39;20.60;38.50
30148;DHT22;16960;49.404;8.248;2023-04-03T07:27:05;20.60;38.50
30148;DHT22;16960;49.404;8.248;2023-04-03T07:29:34;20.60;38.40
30148;DHT22;16960;49.404;8.248;2023-04-03T07:32:01;20.60;38.70
30148;DHT22;16960;49.404;8.248;2023-04-03T07:34:30;20.60;38.70
30148;DHT22;16960;49.404;8.248;2023-04-03T07:36:57;20.60;38.70
30148;DHT22;16960;49.404;8.248;2023-04-03T07:39:24;20.50;38.30
30148;DHT22;16960;49.404;8.248;2023-04-03T07:41:51;20.50;37.50
30148;DHT22;16960;49.404;8.248;2023-04-03T07:44:18;20.50;37.30
30148;DHT22;16960;49.404;8.248;2023-04-03T07:46:45;20.50;37.40
30148;DHT22;16960;49.404;8.248;2023-04-03T07:49:12;20.50;37.60
30148;DHT22;16960;49.404;8.248;2023-04-03T07:51:40;20.50;37.90
30148;DHT22;16960;49.404;8.248;2023-04-03T07:54:07;20.50;38.00
30148;DHT22;16960;49.404;8.248;2023-04-03T07:56:34;20.50;38.10
30148;DHT22;16960;49.404;8.248;2023-04-03T07:59:01;20.50;38.10
30148;DHT22;16960;49.404;8.248;2023-04-03T08:01:28;20.50;38.20
30148;DHT22;16960;49.404;8.248;2023-04-03T08:03:58;20.50;38.20
30148;DHT22;16960;49.404;8.248;2023-04-03T08:06:24;20.50;38.20
30148;DHT22;16960;49.404;8.248;2023-04-03T08:08:53;20.50;38.20
30148;DHT22;16960;49.404;8.248;2023-04-03T08:11:20;20.60;38.20
30148;DHT22;16960;49.404;8.248;2023-04-03T08:13:47;20.50;38.10
30148;DHT22;16960;49.404;8.248;2023-04-03T08:16:17;20.50;38.10
30148;DHT22;16960;49.404;8.248;2023-04-03T08:18:44;20.60;38.10
30148;DHT22;16960;49.404;8.248;2023-04-03T08:21:12;20.50;38.10
30148;DHT22;16960;49.404;8.248;2023-04-03T08:23:41;20.50;38.00
30148;DHT22;16960;49.404;8.248;2023-04-03T08:26:11;20.50;38.00
30148;DHT22;16960;49.404;8.248;2023-04-03T08:28:39;20.50;38.00
30148;DHT22;16960;49.404;8.248;2023-04-03T08:31:08;20.50;38.10
30148;DHT22;16960;49.404;8.248;2023-04-03T08:33:36;20.50;37.80
30148;DHT22;16960;49.404;8.248;2023-04-03T08:36:04;20.50;37.80
30148;DHT22;16960;49.404;8.248;2023-04-03T08:38:32;20.50;37.80
30148;DHT22;16960;49.404;8.248;2023-04-03T08:41:01;20.50;37.90
30148;DHT22;16960;49.404;8.248;2023-04-03T08:43:35;20.50;37.90
30148;DHT22;16960;49.404;8.248;2023-04-03T08:46:06;20.50;37.80
30148;DHT22;16960;49.404;8.248;2023-04-03T08:48:41;20.50;38.20
30148;DHT22;16960;49.404;8.248;2023-04-03T08:51:12;20.50;37.60
30148;DHT22;16960;49.404;8.248;2023-04-03T08:53:44;20.50;37.60
30148;DHT22;16960;49.404;8.248;2023-04-03T08:56:13;20.50;37.50
30148;DHT22;16960;49.404;8.248;2023-04-03T08:58:48;20.50;37.40
30148;DHT22;16960;49.404;8.248;2023-04-03T09:01:21;20.50;37.40
30148;DHT22;16960;49.404;8.248;2023-04-03T09:03:49;20.50;37.30
30148;DHT22;16960;49.404;8.248;2023-04-03T09:06:20;20.50;37.20
30148;DHT22;16960;49.404;8.248;2023-04-03T09:09:04;20.50;37.00
30148;DHT22;16960;49.404;8.248;2023-04-03T09:11:44;20.50;37.00
30148;DHT22;16960;49.404;8.248;2023-04-03T09:14:21;20.50;36.90
30148;DHT22;16960;49.404;8.248;2023-04-03T09:16:55;20.60;36.90
30148;DHT22;16960;49.404;8.248;2023-04-03T09:19:32;20.60;36.80
30148;DHT22;16960;49.404;8.248;2023-04-03T09:22:09;20.60;36.70
30148;DHT22;16960;49.404;8.248;2023-04-03T09:24:38;20.60;36.70
30148;DHT22;16960;49.404;8.248;2023-04-03T09:27:09;20.70;36.90
30148;DHT22;16960;49.404;8.248;2023-04-03T09:29:40;20.60;36.80
30148;DHT22;16960;49.404;8.248;2023-04-03T09:32:19;20.60;36.80
30148;DHT22;16960;49.404;8.248;2023-04-03T09:34:48;20.60;36.60
30148;DHT22;16960;49.404;8.248;2023-04-03T09:37:35;20.70;36.50
30148;DHT22;16960;49.404;8.248;2023-04-03T09:40:03;20.70;36.30
30148;DHT22;16960;49.404;8.248;2023-04-03T09:42:31;20.70;36.30
30148;DHT22;16960;49.404;8.248;2023-04-03T09:45:01;20.70;36.30
30148;DHT22;16960;49.404;8.248;2023-04-03T09:47:30;20.80;36.30
30148;DHT22;16960;49.404;8.248;2023-04-03T09:50:19;20.80;36.20
30148;DHT22;16960;49.404;8.248;2023-04-03T09:52:48;20.80;36.00
30148;DHT22;16960;49.404;8.248;2023-04-03T09:55:18;20.80;36.00
30148;DHT22;16960;49.404;8.248;2023-04-03T09:57:45;20.80;35.90
30148;DHT22;16960;49.404;8.248;2023-04-03T10:00:22;20.80;35.90
30148;DHT22;16960;49.404;8.248;2023-04-03T10:02:53;20.80;36.00
30148;DHT22;16960;49.404;8.248;2023-04-03T10:05:33;20.80;36.20
30148;DHT22;16960;49.404;8.248;2023-04-03T10:08:09;20.90;36.40
30148;DHT22;16960;49.404;8.248;2023-04-03T10:10:36;20.90;36.40
30148;DHT22;16960;49.404;8.248;2023-04-03T10:13:05;20.90;37.00
30148;DHT22;16960;49.404;8.248;2023-04-03T10:15:40;20.90;36.30
30148;DHT22;16960;49.404;8.248;2023-04-03T10:18:21;20.90;36.20
30148;DHT22;16960;49.404;8.248;2023-04-03T10:20:53;20.90;36.30
30148;DHT22;16960;49.404;8.248;2023-04-03T10:23:26;20.90;36.30
30148;DHT22;16960;49.404;8.248;2023-04-03T10:26:02;21.00;36.00
30148;DHT22;16960;49.404;8.248;2023-04-03T10:28:40;21.00;35.90
30148;DHT22;16960;49.404;8.248;2023-04-03T10:31:15;21.00;35.80
30148;DHT22;16960;49.404;8.248;2023-04-03T10:33:56;21.10;36.10
30148;DHT22;16960;49.404;8.248;2023-04-03T10:36:37;21.10;35.80
30148;DHT22;16960;49.404;8.248;2023-04-03T10:39:14;21.10;35.80
30148;DHT22;16960;49.404;8.248;2023-04-03T10:41:51;21.20;35.80
30148;DHT22;16960;49.404;8.248;2023-04-03T10:44:29;21.20;35.50
30148;DHT22;16960;49.404;8.248;2023-04-03T10:47:03;21.20;35.40
30148;DHT22;16960;49.404;8.248;2023-04-03T10:49:41;21.20;35.20
30148;DHT22;16960;49.404;8.248;2023-04-03T10:52:19;21.20;35.00
30148;DHT22;16960;49.404;8.248;2023-04-03T10:54:52;21.20;35.10
30148;DHT22;16960;49.404;8.248;2023-04-03T10:57:23;21.20;35.10
30148;DHT22;16960;49.404;8.248;2023-04-03T10:59:53;21.20;35.10
30148;DHT22;16960;49.404;8.248;2023-04-03T11:02:26;21.20;35.10
30148;DHT22;16960;49.404;8.248;2023-04-03T11:04:59;21.20;35.00
30148;DHT22;16960;49.404;8.248;2023-04-03T11:07:28;21.30;35.20
30148;DHT22;16960;49.404;8.248;2023-04-03T11:10:00;21.30;35.00
30148;DHT22;16960;49.404;8.248;2023-04-03T11:12:36;21.40;35.10
30148;DHT22;16960;49.404;8.248;2023-04-03T11:15:04;21.40;34.90
30148;DHT22;16960;49.404;8.248;2023-04-03T11:17:37;21.50;34.80
30148;DHT22;16960;49.404;8.248;2023-04-03T11:20:10;21.50;35.40
30148;DHT22;16960;49.404;8.248;2023-04-03T11:22:43;21.50;34.80
30148;DHT22;16960;49.404;8.248;2023-04-03T11:25:18;21.50;34.80
30148;DHT22;16960;49.404;8.248;2023-04-03T11:27:49;21.50;34.80
30148;DHT22;16960;49.404;8.248;2023-04-03T11:30:19;21.60;34.70
30148;DHT22;16960;49.404;8.248;2023-04-03T11:33:19;21.70;34.60
30148;DHT22;16960;49.404;8.248;2023-04-03T11:35:51;21.70;34.60
30148;DHT22;16960;49.404;8.248;2023-04-03T11:38:22;21.70;34.50
30148;DHT22;16960;49.404;8.248;2023-04-03T11:40:51;21.80;34.20
30148;DHT22;16960;49.404;8.248;2023-04-03T11:43:24;21.80;33.60
30148;DHT22;16960;49.404;8.248;2023-04-03T11:45:57;21.90;33.70
30148;DHT22;16960;49.404;8.248;2023-04-03T11:48:47;22.00;33.90
30148;DHT22;16960;49.404;8.248;2023-04-03T11:54:44;22.00;33.70
30148;DHT22;16960;49.404;8.248;2023-04-03T12:00:48;22.00;34.00
30148;DHT22;16960;49.404;8.248;2023-04-03T12:10:13;21.80;34.00
30148;DHT22;16960;49.404;8.248;2023-04-03T12:12:41;21.80;33.40
30148;DHT22;16960;49.404;8.248;2023-04-03T12:15:20;21.80;33.50
30148;DHT22;16960;49.404;8.248;2023-04-03T12:17:47;21.80;33.50
30148;DHT22;16960;49.404;8.248;2023-04-03T12:20:55;21.70;34.00
30148;DHT22;16960;49.404;8.248;2023-04-03T12:23:33;21.70;33.50
30148;DHT22;16960;49.404;8.248;2023-04-03T12:26:04;21.70;33.20
30148;DHT22;16960;49.404;8.248;2023-04-03T12:28:38;21.70;33.20
30148;DHT22;16960;49.404;8.248;2023-04-03T12:31:10;21.70;33.10
30148;DHT22;16960;49.404;8.248;2023-04-03T12:33:50;21.70;32.90
30148;DHT22;16960;49.404;8.248;2023-04-03T12:36:28;21.80;32.30
30148;DHT22;16960;49.404;8.248;2023-04-03T12:39:17;21.80;32.10
30148;DHT22;16960;49.404;8.248;2023-04-03T12:41:56;21.80;31.90
30148;DHT22;16960;49.404;8.248;2023-04-03T12:44:34;21.80;31.60
30148;DHT22;16960;49.404;8.248;2023-04-03T12:47:16;21.80;31.50
30148;DHT22;16960;49.404;8.248;2023-04-03T12:49:46;21.80;31.30
30148;DHT22;16960;49.404;8.248;2023-04-03T12:52:20;21.80;31.50
30148;DHT22;16960;49.404;8.248;2023-04-03T12:54:50;21.80;31.90
30148;DHT22;16960;49.404;8.248;2023-04-03T12:57:20;21.80;31.90
30148;DHT22;16960;49.404;8.248;2023-04-03T12:59:50;21.90;31.60
30148;DHT22;16960;49.404;8.248;2023-04-03T13:02:23;21.90;31.60
30148;DHT22;16960;49.404;8.248;2023-04-03T13:04:51;21.90;31.70
30148;DHT22;16960;49.404;8.248;2023-04-03T13:07:23;21.80;31.10
30148;DHT22;16960;49.404;8.248;2023-04-03T13:10:01;21.80;31.30
30148;DHT22;16960;49.404;8.248;2023-04-03T13:12:29;21.80;32.10
30148;DHT22;16960;49.404;8.248;2023-04-03T13:14:58;21.80;31.70
30148;DHT22;16960;49.404;8.248;2023-04-03T13:17:26;21.80;31.70
30148;DHT22;16960;49.404;8.248;2023-04-03T13:19:53;21.90;32.20
30148;DHT22;16960;49.404;8.248;2023-04-03T13:22:28;21.90;32.30
30148;DHT22;16960;49.404;8.248;2023-04-03T13:24:59;21.90;32.40
30148;DHT22;16960;49.404;8.248;2023-04-03T13:27:31;21.90;32.50
30148;DHT22;16960;49.404;8.248;2023-04-03T13:30:00;21.90;32.50
30148;DHT22;16960;49.404;8.248;2023-04-03T13:32:31;21.90;32.70
30148;DHT22;16960;49.404;8.248;2023-04-03T13:34:58;21.80;32.70
30148;DHT22;16960;49.404;8.248;2023-04-03T13:37:28;21.80;32.80
30148;DHT22;16960;49.404;8.248;2023-04-03T13:40:00;21.80;32.90
30148;DHT22;16960;49.404;8.248;2023-04-03T13:42:32;21.80;33.00
30148;DHT22;16960;49.404;8.248;2023-04-03T13:45:17;21.80;33.10
30148;DHT22;16960;49.404;8.248;2023-04-03T13:47:46;21.80;33.20
30148;DHT22;16960;49.404;8.248;2023-04-03T13:50:17;21.80;33.30
30148;DHT22;16960;49.404;8.248;2023-04-03T13:52:48;21.70;33.40
30148;DHT22;16960;49.404;8.248;2023-04-03T13:55:20;21.70;33.50
30148;DHT22;16960;49.404;8.248;2023-04-03T13:57:54;21.70;33.60
30148;DHT22;16960;49.404;8.248;2023-04-03T14:00:29;21.60;33.70
30148;DHT22;16960;49.404;8.248;2023-04-03T14:02:58;21.60;33.70
30148;DHT22;16960;49.404;8.248;2023-04-03T14:05:25;21.60;33.80
30148;DHT22;16960;49.404;8.248;2023-04-03T14:07:53;21.50;33.90
30148;DHT22;16960;49.404;8.248;2023-04-03T14:10:21;21.50;34.00
30148;DHT22;16960;49.404;8.248;2023-04-03T14:12:48;21.50;34.30
30148;DHT22;16960;49.404;8.248;2023-04-03T14:15:21;21.50;34.10
30148;DHT22;16960;49.404;8.248;2023-04-03T14:17:50;21.50;34.30
30148;DHT22;16960;49.404;8.248;2023-04-03T14:20:20;21.50;34.30
30148;DHT22;16960;49.404;8.248;2023-04-03T14:22:47;21.60;34.50
30148;DHT22;16960;49.404;8.248;2023-04-03T14:25:15;21.60;34.30
30148;DHT22;16960;49.404;8.248;2023-04-03T14:27:46;21.70;34.50
30148;DHT22;16960;49.404;8.248;2023-04-03T14:30:18;21.70;34.50
30148;DHT22;16960;49.404;8.248;2023-04-03T14:32:46;21.70;34.70
30148;DHT22;16960;49.404;8.248;2023-04-03T14:35:14;21.70;34.50
30148;DHT22;16960;49.404;8.248;2023-04-03T14:37:41;21.80;34.50
30148;DHT22;16960;49.404;8.248;2023-04-03T14:40:13;21.80;34.50
30148;DHT22;16960;49.404;8.248;2023-04-03T14:42:40;21.80;34.60
30148;DHT22;16960;49.404;8.248;2023-04-03T14:45:09;21.90;34.60
30148;DHT22;16960;49.404;8.248;2023-04-03T14:47:41;21.90;34.60
30148;DHT22;16960;49.404;8.248;2023-04-03T14:50:15;21.90;34.60
30148;DHT22;16960;49.404;8.248;2023-04-03T14:52:43;21.90;34.60
30148;DHT22;16960;49.404;8.248;2023-04-03T14:55:12;21.90;34.70
30148;DHT22;16960;49.404;8.248;2023-04-03T14:57:39;21.90;34.80
30148;DHT22;16960;49.404;8.248;2023-04-03T15:00:11;21.90;34.70
30148;DHT22;16960;49.404;8.248;2023-04-03T15:02:40;21.90;34.70
30148;DHT22;16960;49.404;8.248;2023-04-03T15:05:09;21.90;34.80
30148;DHT22;16960;49.404;8.248;2023-04-03T15:07:38;22.00;34.70
30148;DHT22;16960;49.404;8.248;2023-04-03T15:10:16;22.00;34.80
30148;DHT22;16960;49.404;8.248;2023-04-03T15:12:44;22.00;34.80
30148;DHT22;16960;49.404;8.248;2023-04-03T15:15:11;22.00;34.80
30148;DHT22;16960;49.404;8.248;2023-04-03T15:17:40;22.10;35.50
30148;DHT22;16960;49.404;8.248;2023-04-03T15:20:12;22.10;34.80
30148;DHT22;16960;49.404;8.248;2023-04-03T15:22:39;22.10;34.80
30148;DHT22;16960;49.404;8.248;2023-04-03T15:25:07;22.10;34.40
30148;DHT22;16960;49.404;8.248;2023-04-03T15:27:35;22.20;34.50
30148;DHT22;16960;49.404;8.248;2023-04-03T15:30:02;22.10;34.80
30148;DHT22;16960;49.404;8.248;2023-04-03T15:32:29;22.10;34.90
30148;DHT22;16960;49.404;8.248;2023-04-03T15:34:57;22.10;34.80
30148;DHT22;16960;49.404;8.248;2023-04-03T15:37:24;22.10;34.90
30148;DHT22;16960;49.404;8.248;2023-04-03T15:39:51;22.10;34.90
30148;DHT22;16960;49.404;8.248;2023-04-03T15:42:18;22.10;34.90
30148;DHT22;16960;49.404;8.248;2023-04-03T15:44:45;22.10;35.00
30148;DHT22;16960;49.404;8.248;2023-04-03T15:47:12;22.20;34.90
30148;DHT22;16960;49.404;8.248;2023-04-03T15:49:39;22.20;34.90
30148;DHT22;16960;49.404;8.248;2023-04-03T15:52:08;22.20;34.90
30148;DHT22;16960;49.404;8.248;2023-04-03T15:54:35;22.30;35.00
30148;DHT22;16960;49.404;8.248;2023-04-03T15:57:01;22.30;35.00
30148;DHT22;16960;49.404;8.248;2023-04-03T15:59:28;22.30;34.90
30148;DHT22;16960;49.404;8.248;2023-04-03T16:01:57;22.30;34.90
30148;DHT22;16960;49.404;8.248;2023-04-03T16:04:25;22.30;34.90